Burlington, Maine
Current Conditions -  °F | °C
As of 4:28 AM on Wednesday 28 Jan 2015 (Local Time) from KMLT Reporting Station
Light Snow Light Snow  
Wind Chill: -1°   Ceiling: 3500
Heat Index: 13°   Visibility: 2.5mi
Dew Point:   Wind: 12mph
Humidity: 81%   Direction: 340°NNW
Pressure: 29.74"   Gusts: 20mph
Location:  45.21°N, 68.43°W
Report Text: KMLT 280928Z AUTO 34010G17KT 2 1/2SM -SN OVC035 M11/M13 A2974 RMK AO2 P0000 T11061133
Loading
Personal Weather Stations






























Interactive Weather Map New forecast layout! Learn more

10-Day Weather Forecast

Advertisements
Track Severe Weather on mobile